Time;durP1;ratioP1;P1;durP2;ratioP2;P2;SDS_P1;SDS_P2;PMS_P1;PMS_P2;Temp;Humidity;BMP_temperature;BMP_pressure;BME280_temperature;BME280_humidity;BME280_pressure;Samples;Min_cycle;Max_cycle;Signal;HPM_P1;HPM_P2
2022/03/22 00:00:51;;;;;;;55.70;35.75;;;;;;;;;;5098840;28;20123;-66
2022/03/22 00:03:17;;;;;;;53.03;35.28;;;;;;;;;;5085076;28;20064;-65
2022/03/22 00:05:44;;;;;;;50.65;34.35;;;;;;;;;;5086279;28;20143;-65
2022/03/22 00:08:11;;;;;;;49.35;33.05;;;;;;;;;;5084575;28;20048;-65
2022/03/22 00:10:38;;;;;;;50.00;33.83;;;;;;;;;;5085035;28;20048;-65
2022/03/22 00:13:07;;;;;;;53.77;35.23;;;;;;;;;;5084815;28;20036;-65
2022/03/22 00:15:34;;;;;;;50.75;34.88;;;;;;;;;;5085014;28;20108;-65
2022/03/22 00:18:00;;;;;;;52.08;34.95;;;;;;;;;;5084627;28;20055;-65
2022/03/22 00:20:27;;;;;;;55.63;35.42;;;;;;;;;;5096291;28;20040;-65
2022/03/22 00:22:54;;;;;;;47.58;32.90;;;;;;;;;;5104538;28;20047;-65
2022/03/22 00:25:20;;;;;;;56.60;35.97;;;;;;;;;;5104990;28;20048;-65
2022/03/22 00:27:51;;;;;;;53.28;36.38;;;;;;;;;;5104764;28;20052;-65
2022/03/22 00:30:27;;;;;;;56.85;36.28;;;;;;;;;;5104870;28;20131;-65
2022/03/22 00:32:54;;;;;;;51.95;34.53;;;;;;;;;;5104823;28;20070;-65
2022/03/22 00:35:22;;;;;;;53.37;35.63;;;;;;;;;;5091573;28;20052;-65
2022/03/22 00:37:50;;;;;;;54.33;35.72;;;;;;;;;;5084064;28;20108;-66
2022/03/22 00:40:19;;;;;;;56.60;39.22;;;;;;;;;;5084482;28;20048;-66
2022/03/22 00:42:46;;;;;;;55.92;36.40;;;;;;;;;;5084362;28;20052;-66
2022/03/22 00:45:13;;;;;;;54.40;37.03;;;;;;;;;;5099141;28;20504;-65
2022/03/22 00:47:40;;;;;;;51.67;36.28;;;;;;;;;;5104400;28;20729;-65
2022/03/22 00:50:07;;;;;;;57.33;37.40;;;;;;;;;;5104307;28;20044;-65
2022/03/22 00:52:35;;;;;;;55.50;36.05;;;;;;;;;;5103638;28;20377;-64
2022/03/22 00:55:04;;;;;;;52.97;36.25;;;;;;;;;;5104710;28;20048;-66
2022/03/22 00:57:30;;;;;;;57.42;36.83;;;;;;;;;;5104275;28;20052;-65
2022/03/22 01:00:02;;;;;;;52.78;38.05;;;;;;;;;;5104493;28;20040;-65
2022/03/22 01:02:29;;;;;;;54.40;38.33;;;;;;;;;;5104330;28;20040;-65
2022/03/22 01:04:58;;;;;;;54.03;37.63;;;;;;;;;;5103746;28;20083;-65
2022/03/22 01:07:25;;;;;;;54.45;38.83;;;;;;;;;;5083810;28;20109;-65
2022/03/22 01:09:51;;;;;;;53.95;37.30;;;;;;;;;;5084030;28;20051;-66
2022/03/22 01:12:17;;;;;;;63.05;38.90;;;;;;;;;;5083868;28;20051;-66
2022/03/22 01:14:43;;;;;;;54.33;35.45;;;;;;;;;;5084228;28;20122;-66
2022/03/22 01:17:09;;;;;;;52.97;35.88;;;;;;;;;;5083741;28;20045;-66
2022/03/22 01:19:36;;;;;;;59.83;38.15;;;;;;;;;;5084194;28;20319;-66
2022/03/22 01:22:03;;;;;;;57.20;36.97;;;;;;;;;;5103410;28;20040;-66
2022/03/22 01:24:29;;;;;;;58.27;36.73;;;;;;;;;;5103643;28;20050;-66
2022/03/22 01:26:56;;;;;;;54.83;36.60;;;;;;;;;;5103947;28;20347;-66
2022/03/22 01:29:22;;;;;;;59.22;37.78;;;;;;;;;;5104097;28;20044;-66
2022/03/22 01:31:49;;;;;;;51.88;36.22;;;;;;;;;;5103872;28;20048;-65
2022/03/22 01:34:15;;;;;;;53.67;37.33;;;;;;;;;;5104254;28;20131;-65
2022/03/22 01:36:42;;;;;;;60.60;38.97;;;;;;;;;;5098942;28;20475;-66
2022/03/22 01:39:08;;;;;;;58.78;38.65;;;;;;;;;;5083598;28;20045;-66
2022/03/22 01:41:34;;;;;;;58.63;37.72;;;;;;;;;;5083589;28;20393;-66
2022/03/22 01:44:00;;;;;;;59.63;38.38;;;;;;;;;;5084291;28;20041;-67
2022/03/22 01:46:27;;;;;;;57.08;37.58;;;;;;;;;;5083791;28;20048;-65
2022/03/22 01:48:54;;;;;;;60.63;37.97;;;;;;;;;;5083911;28;20041;-65
2022/03/22 01:51:21;;;;;;;52.13;37.58;;;;;;;;;;5082812;28;20055;-66
2022/03/22 01:53:48;;;;;;;56.90;38.17;;;;;;;;;;5083483;28;20036;-66
2022/03/22 01:56:14;;;;;;;57.30;38.47;;;;;;;;;;5083240;28;20531;-65
2022/03/22 01:58:41;;;;;;;54.67;36.63;;;;;;;;;;5083573;28;20066;-68
2022/03/22 02:06:38;;;;;;;61.35;38.50;;;;;;;;;;5103496;28;20097;-66
2022/03/22 02:09:04;;;;;;;56.30;37.80;;;;;;;;;;5103360;28;20107;-66
2022/03/22 02:11:31;;;;;;;57.78;38.15;;;;;;;;;;5098471;28;20053;-66
2022/03/22 02:13:58;;;;;;;58.53;39.03;;;;;;;;;;5083215;28;20040;-65
2022/03/22 02:16:24;;;;;;;59.33;39.35;;;;;;;;;;5093314;28;20051;-65
2022/03/22 02:18:51;;;;;;;56.38;38.47;;;;;;;;;;5107370;28;20047;-65
2022/03/22 02:21:19;;;;;;;62.47;41.47;;;;;;;;;;5107063;28;20040;-66
2022/03/22 02:23:58;;;;;;;70.82;42.40;;;;;;;;;;5106063;28;20052;-66
2022/03/22 02:26:25;;;;;;;75.78;46.03;;;;;;;;;;5105200;28;20040;-65
2022/03/22 02:28:54;;;;;;;81.00;47.80;;;;;;;;;;5106229;28;20068;-66
2022/03/22 02:31:22;;;;;;;73.43;45.55;;;;;;;;;;5107113;28;20048;-64
2022/03/22 02:33:48;;;;;;;73.78;45.55;;;;;;;;;;5105029;28;20066;-65
2022/03/22 02:36:14;;;;;;;69.00;43.25;;;;;;;;;;5102578;28;20131;-66
2022/03/22 02:38:41;;;;;;;62.63;41.47;;;;;;;;;;5106930;28;20127;-66
2022/03/22 02:41:07;;;;;;;62.67;40.92;;;;;;;;;;5107171;28;20059;-67
2022/03/22 02:43:34;;;;;;;58.97;38.40;;;;;;;;;;5107344;28;20055;-67
2022/03/22 02:46:00;;;;;;;59.00;37.00;;;;;;;;;;5106692;28;20108;-65
2022/03/22 02:48:27;;;;;;;54.50;37.47;;;;;;;;;;5106950;28;20046;-65
2022/03/22 02:50:53;;;;;;;64.20;40.20;;;;;;;;;;5106845;28;20133;-65
2022/03/22 02:53:19;;;;;;;61.78;37.72;;;;;;;;;;5101826;28;20044;-65
2022/03/22 02:55:45;;;;;;;56.80;38.45;;;;;;;;;;5086625;28;20106;-65
2022/03/22 02:58:12;;;;;;;65.78;40.13;;;;;;;;;;5086839;28;20045;-66
2022/03/22 03:00:39;;;;;;;56.72;39.33;;;;;;;;;;5086600;28;20109;-67
2022/03/22 03:03:05;;;;;;;59.08;39.65;;;;;;;;;;5086354;28;20055;-65
2022/03/22 03:05:32;;;;;;;56.88;40.53;;;;;;;;;;5086896;28;20601;-65
2022/03/22 03:07:59;;;;;;;63.75;41.40;;;;;;;;;;5088944;28;20040;-65
2022/03/22 03:10:26;;;;;;;60.75;40.53;;;;;;;;;;5106674;28;20063;-66
2022/03/22 03:13:02;;;;;;;60.15;40.25;;;;;;;;;;5106467;28;20036;-65
2022/03/22 03:15:29;;;;;;;59.55;39.80;;;;;;;;;;5106506;28;20078;-65
2022/03/22 03:17:55;;;;;;;62.92;38.92;;;;;;;;;;5106482;28;20048;-66
2022/03/22 03:20:21;;;;;;;59.08;37.78;;;;;;;;;;5106854;28;20119;-65
2022/03/22 03:22:48;;;;;;;58.70;38.22;;;;;;;;;;5100749;28;20086;-65
2022/03/22 03:25:14;;;;;;;66.32;40.50;;;;;;;;;;5086379;28;20100;-66
2022/03/22 03:27:40;;;;;;;55.80;38.42;;;;;;;;;;5105951;28;20052;-65
2022/03/22 03:30:07;;;;;;;61.90;39.90;;;;;;;;;;5106259;28;20044;-65
2022/03/22 03:32:34;;;;;;;56.78;39.15;;;;;;;;;;5106127;28;20044;-65
2022/03/22 03:35:00;;;;;;;57.88;37.75;;;;;;;;;;5106619;28;20047;-65
2022/03/22 03:37:33;;;;;;;62.17;39.78;;;;;;;;;;5105545;28;20076;-65
2022/03/22 03:39:59;;;;;;;59.72;41.08;;;;;;;;;;5105154;28;20057;-66
2022/03/22 03:42:25;;;;;;;57.03;38.20;;;;;;;;;;5085730;28;20053;-65
2022/03/22 03:47:36;;;;;;;55.33;37.97;;;;;;;;;;5085664;28;20048;-65
2022/03/22 03:50:05;;;;;;;59.80;39.42;;;;;;;;;;5085906;28;20496;-65
2022/03/22 03:52:37;;;;;;;55.42;38.47;;;;;;;;;;5084899;28;20052;-65
2022/03/22 03:55:05;;;;;;;60.75;37.28;;;;;;;;;;5086431;28;20047;-65
2022/03/22 03:57:32;;;;;;;;;;;;;;;;;;5085319;28;20108;-65
2022/03/22 03:59:58;;;;;;;62.88;39.08;;;;;;;;;;5085524;28;19921;-65
2022/03/22 04:02:25;;;;;;;59.70;38.95;;;;;;;;;;5087772;28;20110;-65
2022/03/22 04:04:52;;;;;;;55.83;38.27;;;;;;;;;;5105886;28;20051;-65
2022/03/22 04:07:19;;;;;;;63.08;38.58;;;;;;;;;;5105190;28;20104;-65
2022/03/22 04:09:45;;;;;;;59.67;39.03;;;;;;;;;;5105258;28;20070;-65
2022/03/22 04:12:14;;;;;;;58.70;38.22;;;;;;;;;;5105462;28;20074;-66
2022/03/22 04:14:41;;;;;;;60.85;39.72;;;;;;;;;;5091309;28;20040;-66
2022/03/22 04:17:08;;;;;;;59.40;39.33;;;;;;;;;;5084759;28;20044;-65
2022/03/22 04:19:35;;;;;;;62.53;38.50;;;;;;;;;;5085204;28;20134;-66
2022/03/22 04:22:02;;;;;;;59.47;37.78;;;;;;;;;;5084236;28;20522;-66
2022/03/22 04:24:29;;;;;;;60.58;37.97;;;;;;;;;;5084705;28;20051;-66
2022/03/22 04:32:41;;;;;;;56.38;37.65;;;;;;;;;;5084701;28;20044;-68
2022/03/22 04:32:41;;;;;;;57.38;37.33;;;;;;;;;;5084632;28;20101;-66
2022/03/22 04:35:08;;;;;;;57.15;38.83;;;;;;;;;;5085455;28;20047;-66
2022/03/22 04:37:34;;;;;;;56.92;37.58;;;;;;;;;;5084199;28;20466;-65
2022/03/22 04:40:00;;;;;;;57.95;38.60;;;;;;;;;;5083997;28;20079;-66
2022/03/22 04:42:26;;;;;;;53.80;38.83;;;;;;;;;;5084556;28;20067;-66
2022/03/22 04:44:53;;;;;;;58.10;38.90;;;;;;;;;;5084584;28;20070;-66
2022/03/22 04:47:19;;;;;;;54.65;37.15;;;;;;;;;;5084514;28;20041;-66
2022/03/22 04:49:45;;;;;;;60.20;40.05;;;;;;;;;;5088859;28;20047;-65
2022/03/22 04:57:41;;;;;;;57.30;39.85;;;;;;;;;;5104779;28;20105;-66
2022/03/22 05:00:08;;;;;;;62.33;39.42;;;;;;;;;;5104498;28;20044;-65
2022/03/22 05:02:34;;;;;;;55.72;38.70;;;;;;;;;;5104420;28;20044;-65
2022/03/22 05:05:00;;;;;;;58.17;37.72;;;;;;;;;;5100653;28;20063;-65
2022/03/22 05:07:26;;;;;;;64.22;40.13;;;;;;;;;;5083661;28;20052;-65
2022/03/22 05:09:52;;;;;;;58.25;39.67;;;;;;;;;;5082893;28;20059;-65
2022/03/22 05:12:19;;;;;;;63.53;40.83;;;;;;;;;;5084083;28;20098;-65
2022/03/22 05:14:50;;;;;;;57.28;39.60;;;;;;;;;;5084080;28;20654;-65
2022/03/22 05:17:21;;;;;;;60.03;39.33;;;;;;;;;;5083954;28;20100;-65
2022/03/22 05:19:49;;;;;;;58.92;39.22;;;;;;;;;;5085038;28;20511;-65
2022/03/22 05:22:15;;;;;;;;;;;;;;;;;;5083982;28;20297;-64
2022/03/22 05:24:41;;;;;;;60.70;40.50;;;;;;;;;;5083928;28;20299;-66
2022/03/22 05:27:08;;;;;;;58.03;40.65;;;;;;;;;;5083677;28;20044;-66
2022/03/22 05:29:34;;;;;;;60.55;40.72;;;;;;;;;;5083676;28;20055;-66
2022/03/22 05:32:00;;;;;;;60.33;40.58;;;;;;;;;;5083464;28;20053;-66
2022/03/22 05:34:27;;;;;;;54.20;38.80;;;;;;;;;;5086488;28;20063;-66
2022/03/22 05:36:53;;;;;;;62.28;39.95;;;;;;;;;;5103356;28;20543;-66
2022/03/22 05:39:19;;;;;;;66.10;41.97;;;;;;;;;;5103797;28;20067;-66
2022/03/22 05:41:46;;;;;;;68.20;39.22;;;;;;;;;;5103684;28;20068;-66
2022/03/22 05:44:12;;;;;;;62.35;39.58;;;;;;;;;;5083434;28;20102;-66
2022/03/22 05:46:39;;;;;;;62.45;41.35;;;;;;;;;;5083204;28;20056;-65
2022/03/22 05:49:05;;;;;;;61.10;41.03;;;;;;;;;;5085274;28;20046;-65
2022/03/22 05:51:31;;;;;;;57.85;39.28;;;;;;;;;;5104834;28;20039;-65
2022/03/22 05:53:58;;;;;;;64.10;40.92;;;;;;;;;;5107882;28;20099;-66
2022/03/22 05:56:25;;;;;;;60.17;39.42;;;;;;;;;;5107359;28;20112;-65
2022/03/22 05:58:51;;;;;;;55.40;40.03;;;;;;;;;;5107663;28;20051;-66
2022/03/22 06:01:17;;;;;;;58.55;38.92;;;;;;;;;;5107646;28;20553;-66
2022/03/22 06:03:43;;;;;;;59.13;39.33;;;;;;;;;;5105997;28;20040;-66
2022/03/22 06:06:10;;;;;;;57.03;38.28;;;;;;;;;;5086648;28;20059;-64
2022/03/22 06:08:36;;;;;;;56.40;37.83;;;;;;;;;;5087243;28;20053;-67
2022/03/22 06:11:02;;;;;;;59.30;37.22;;;;;;;;;;5086891;28;20055;-66
2022/03/22 06:13:29;;;;;;;61.95;38.85;;;;;;;;;;5090472;28;20040;-65
2022/03/22 06:15:55;;;;;;;55.05;39.42;;;;;;;;;;5106944;28;20046;-65
2022/03/22 06:18:21;;;;;;;65.25;40.30;;;;;;;;;;5107402;28;20139;-65
2022/03/22 06:20:47;;;;;;;60.63;38.17;;;;;;;;;;5107488;28;20055;-65
2022/03/22 06:23:15;;;;;;;64.63;40.42;;;;;;;;;;5105348;28;20211;-67
2022/03/22 06:25:42;;;;;;;51.83;35.90;;;;;;;;;;5091374;28;20056;-66
2022/03/22 06:28:14;;;;;;;52.75;36.60;;;;;;;;;;5086966;28;20167;-66
2022/03/22 06:30:41;;;;;;;55.42;36.22;;;;;;;;;;5086856;28;20080;-66
2022/03/22 06:33:17;;;;;;;52.65;36.30;;;;;;;;;;5094284;28;20453;-66
2022/03/22 06:35:44;;;;;;;52.92;35.40;;;;;;;;;;5086621;28;20048;-66
2022/03/22 06:38:10;;;;;;;53.47;36.50;;;;;;;;;;5087374;28;20066;-67
2022/03/22 06:40:40;;;;;;;53.13;34.50;;;;;;;;;;5095490;28;20059;-66
2022/03/22 06:43:07;;;;;;;67.88;35.70;;;;;;;;;;5094032;28;20045;-67
2022/03/22 06:45:33;;;;;;;53.58;34.45;;;;;;;;;;5100978;28;20039;-67
2022/03/22 06:48:00;;;;;;;52.70;34.65;;;;;;;;;;5102356;28;20047;-66
2022/03/22 06:50:26;;;;;;;52.40;35.47;;;;;;;;;;5088120;28;20122;-66
2022/03/22 06:52:53;;;;;;;54.45;35.03;;;;;;;;;;5088648;28;20044;-66
2022/03/22 06:55:22;;;;;;;53.40;36.35;;;;;;;;;;5101449;28;20625;-66
2022/03/22 06:57:49;;;;;;;53.97;33.15;;;;;;;;;;5113495;28;20056;-66
2022/03/22 07:00:18;;;;;;;53.28;33.83;;;;;;;;;;5106426;28;20590;-67
2022/03/22 07:02:45;;;;;;;52.95;34.97;;;;;;;;;;5097856;28;20055;-67
2022/03/22 07:05:11;;;;;;;47.50;32.70;;;;;;;;;;5086467;28;20076;-67
2022/03/22 07:07:38;;;;;;;53.90;34.05;;;;;;;;;;5086668;28;20048;-67
2022/03/22 07:10:05;;;;;;;56.22;33.85;;;;;;;;;;5104923;28;20100;-67
2022/03/22 07:12:31;;;;;;;52.03;33.88;;;;;;;;;;5126712;28;20110;-66
2022/03/22 07:14:57;;;;;;;53.63;33.42;;;;;;;;;;5091170;28;20044;-67
2022/03/22 07:17:24;;;;;;;53.42;34.03;;;;;;;;;;5094137;28;20508;-66
2022/03/22 07:19:51;;;;;;;52.63;33.00;;;;;;;;;;5105409;28;20511;-66
2022/03/22 07:22:17;;;;;;;52.10;34.53;;;;;;;;;;5106793;28;20051;-66
2022/03/22 07:24:44;;;;;;;51.00;31.13;;;;;;;;;;5106432;28;20048;-66
2022/03/22 07:27:10;;;;;;;53.63;31.48;;;;;;;;;;5106851;28;20042;-66
2022/03/22 07:29:36;;;;;;;55.13;30.85;;;;;;;;;;5104292;28;20048;-67
2022/03/22 07:32:03;;;;;;;54.40;33.08;;;;;;;;;;5085672;28;20051;-66
2022/03/22 07:34:29;;;;;;;55.42;32.90;;;;;;;;;;5085943;28;20041;-66
2022/03/22 07:36:55;;;;;;;56.72;33.00;;;;;;;;;;5085287;28;20044;-66
2022/03/22 07:39:22;;;;;;;53.40;30.95;;;;;;;;;;5090916;28;20534;-66
2022/03/22 07:41:48;;;;;;;51.95;33.03;;;;;;;;;;5093570;28;20497;-67
2022/03/22 07:44:15;;;;;;;45.83;31.48;;;;;;;;;;5102947;28;20048;-66
2022/03/22 07:46:44;;;;;;;56.65;34.72;;;;;;;;;;5108617;28;20047;-67
2022/03/22 07:54:42;;;;;;;57.28;32.45;;;;;;;;;;5125735;28;20047;-67
2022/03/22 07:57:09;;;;;;;48.40;31.25;;;;;;;;;;5122013;28;20047;-66
2022/03/22 07:59:36;;;;;;;48.85;31.48;;;;;;;;;;5104994;28;20423;-67
2022/03/22 08:02:03;;;;;;;48.90;30.13;;;;;;;;;;5104836;28;20047;-67
2022/03/22 08:04:29;;;;;;;49.17;30.73;;;;;;;;;;5111785;27;20108;-64
2022/03/22 08:06:55;;;;;;;45.85;30.17;;;;;;;;;;5104894;28;20154;-68
2022/03/22 08:09:21;;;;;;;45.97;30.60;;;;;;;;;;5120325;28;20085;-67
2022/03/22 08:11:49;;;;;;;48.88;32.67;;;;;;;;;;5104662;28;20324;-67
2022/03/22 08:14:16;;;;;;;51.47;30.30;;;;;;;;;;5100810;28;20089;-67
2022/03/22 08:16:42;;;;;;;48.58;30.55;;;;;;;;;;5102811;28;20527;-67
2022/03/22 08:19:10;;;;;;;47.92;29.30;;;;;;;;;;5086797;28;20467;-67
2022/03/22 08:21:36;;;;;;;41.25;28.83;;;;;;;;;;5091452;28;20041;-68
2022/03/22 08:24:03;;;;;;;44.10;29.25;;;;;;;;;;5094731;28;20124;-68
2022/03/22 08:26:29;;;;;;;39.85;27.35;;;;;;;;;;5091157;28;20128;-68
2022/03/22 08:28:55;;;;;;;40.78;28.90;;;;;;;;;;5088089;28;20055;-66
2022/03/22 08:31:21;;;;;;;48.33;28.33;;;;;;;;;;5094061;28;20101;-65
2022/03/22 08:33:48;;;;;;;41.28;27.27;;;;;;;;;;5102218;28;20070;-71
2022/03/22 08:36:14;;;;;;;46.25;29.38;;;;;;;;;;5099342;28;20047;-68
2022/03/22 08:38:40;;;;;;;50.92;28.27;;;;;;;;;;5098424;28;20566;-68
2022/03/22 08:41:06;;;;;;;50.17;28.95;;;;;;;;;;5094284;28;20051;-69
2022/03/22 08:43:32;;;;;;;45.45;29.38;;;;;;;;;;5096660;28;20063;-68
2022/03/22 08:46:00;;;;;;;41.05;26.65;;;;;;;;;;5086941;28;20048;-70
2022/03/22 08:48:27;;;;;;;47.03;28.38;;;;;;;;;;5090608;28;20056;-68
2022/03/22 08:50:53;;;;;;;42.85;27.08;;;;;;;;;;5099647;28;20052;-67
2022/03/22 08:53:20;;;;;;;50.53;28.38;;;;;;;;;;5092836;28;20047;-68
2022/03/22 08:55:47;;;;;;;46.30;27.65;;;;;;;;;;5087687;28;20049;-67
2022/03/22 08:58:13;;;;;;;40.27;26.73;;;;;;;;;;5089868;28;20060;-64
2022/03/22 09:00:40;;;;;;;39.45;26.42;;;;;;;;;;5100136;28;20377;-65
2022/03/22 09:03:08;;;;;;;41.20;27.55;;;;;;;;;;5091132;28;20041;-64
2022/03/22 09:08:19;;;;;;;39.22;27.60;;;;;;;;;;5099623;28;19931;-64
2022/03/22 09:10:49;;;;;;;43.38;26.85;;;;;;;;;;5090918;28;20052;-65
2022/03/22 09:13:16;;;;;;;40.05;25.98;;;;;;;;;;5099493;28;20047;-65
2022/03/22 09:15:44;;;;;;;37.92;25.02;;;;;;;;;;5102625;28;20082;-68
2022/03/22 09:18:29;;;;;;;36.83;25.33;;;;;;;;;;5100494;28;20105;-67
2022/03/22 09:20:56;;;;;;;39.20;25.65;;;;;;;;;;5094198;28;20056;-68
2022/03/22 09:23:22;;;;;;;38.35;25.75;;;;;;;;;;5095190;28;20051;-67
2022/03/22 09:25:48;;;;;;;32.58;24.80;;;;;;;;;;5094703;28;20131;-69
2022/03/22 09:28:14;;;;;;;38.40;25.05;;;;;;;;;;5101989;28;20041;-67
2022/03/22 09:30:40;;;;;;;34.35;24.85;;;;;;;;;;5098342;28;20055;-69
2022/03/22 09:33:11;;;;;;;37.80;25.85;;;;;;;;;;5098998;28;20036;-67
2022/03/22 09:35:37;;;;;;;34.63;25.80;;;;;;;;;;5094066;28;20427;-61
2022/03/22 09:38:04;;;;;;;38.47;25.40;;;;;;;;;;5087632;28;20047;-65
2022/03/22 09:40:30;;;;;;;40.15;25.08;;;;;;;;;;5100703;28;20036;-67
2022/03/22 09:42:56;;;;;;;40.90;24.35;;;;;;;;;;5097494;28;20144;-64
2022/03/22 09:45:28;;;;;;;36.25;25.58;;;;;;;;;;5090045;28;20056;-65
2022/03/22 09:47:54;;;;;;;40.75;25.75;;;;;;;;;;5090267;28;20073;-69
2022/03/22 09:51:44;;;;;;;35.55;26.00;;;;;;;;;;5087591;28;20099;-65
2022/03/22 09:53:08;;;;;;;36.63;24.50;;;;;;;;;;5089384;28;20044;-66
2022/03/22 09:55:35;;;;;;;36.97;25.65;;;;;;;;;;5087012;28;20044;-64
2022/03/22 09:58:01;;;;;;;47.58;25.52;;;;;;;;;;5090738;28;20079;-70
2022/03/22 10:00:27;;;;;;;39.28;25.23;;;;;;;;;;5091912;28;20052;-69
2022/03/22 10:02:53;;;;;;;38.35;25.33;;;;;;;;;;5092163;28;20497;-69
2022/03/22 10:05:23;;;;;;;38.33;24.73;;;;;;;;;;5095591;28;20044;-65
2022/03/22 10:07:58;;;;;;;37.35;25.27;;;;;;;;;;5098815;28;20078;-70
2022/03/22 10:10:24;;;;;;;36.65;24.90;;;;;;;;;;5086223;28;20036;-68
2022/03/22 10:13:01;;;;;;;39.75;24.95;;;;;;;;;;5098328;28;20059;-69
2022/03/22 10:15:31;;;;;;;41.05;22.50;;;;;;;;;;5092903;28;20055;-66
2022/03/22 10:18:05;;;;;;;30.55;22.48;;;;;;;;;;5092159;28;20044;-69
2022/03/22 10:20:32;;;;;;;37.42;23.55;;;;;;;;;;5098895;28;20147;-67
2022/03/22 10:22:59;;;;;;;33.60;23.02;;;;;;;;;;5098497;28;20040;-68
2022/03/22 10:25:25;;;;;;;43.22;25.15;;;;;;;;;;5092042;28;20046;-70
2022/03/22 10:27:58;;;;;;;34.30;21.58;;;;;;;;;;5091340;28;20185;-71
2022/03/22 10:30:25;;;;;;;35.92;23.83;;;;;;;;;;5098350;28;20036;-69
2022/03/22 10:32:51;;;;;;;36.95;24.23;;;;;;;;;;5099959;28;20052;-68
2022/03/22 10:35:33;;;;;;;33.22;22.60;;;;;;;;;;5093403;28;20048;-69
2022/03/22 10:38:03;;;;;;;36.00;23.30;;;;;;;;;;5097951;28;20464;-70
2022/03/22 10:40:40;;;;;;;34.55;22.77;;;;;;;;;;5095424;28;20099;-70
2022/03/22 10:43:16;;;;;;;36.35;22.02;;;;;;;;;;5100110;28;20048;-68
2022/03/22 10:45:48;;;;;;;32.10;21.85;;;;;;;;;;5097076;28;20121;-69
2022/03/22 10:48:22;;;;;;;37.97;23.45;;;;;;;;;;5101637;28;20044;-69
2022/03/22 10:50:49;;;;;;;34.28;21.60;;;;;;;;;;5096268;28;20056;-69
2022/03/22 10:53:19;;;;;;;31.77;21.05;;;;;;;;;;5088792;28;20080;-69
2022/03/22 10:55:45;;;;;;;36.15;23.20;;;;;;;;;;5095019;28;20032;-69
2022/03/22 10:58:14;;;;;;;33.23;21.10;;;;;;;;;;5088265;28;20051;-70
2022/03/22 11:00:43;;;;;;;41.80;22.77;;;;;;;;;;5088609;28;20423;-69
2022/03/22 11:03:09;;;;;;;32.65;21.45;;;;;;;;;;5092601;28;20043;-68
2022/03/22 11:05:35;;;;;;;27.33;19.65;;;;;;;;;;5101808;28;20043;-67
2022/03/22 11:08:02;;;;;;;31.83;19.48;;;;;;;;;;5104987;28;20040;-71
2022/03/22 11:10:29;;;;;;;32.03;19.42;;;;;;;;;;5097468;28;20062;-72
2022/03/22 11:12:59;;;;;;;34.38;20.60;;;;;;;;;;5098087;28;20049;-69
2022/03/22 11:15:27;;;;;;;30.73;20.08;;;;;;;;;;5088171;28;20048;-67
2022/03/22 11:17:55;;;;;;;32.75;19.98;;;;;;;;;;5105631;28;20116;-68
2022/03/22 11:20:23;;;;;;;32.63;18.77;;;;;;;;;;5106090;28;20066;-71
2022/03/22 11:22:50;;;;;;;37.65;20.70;;;;;;;;;;5108158;28;20071;-70
2022/03/22 11:25:18;;;;;;;36.45;20.05;;;;;;;;;;5098320;28;20516;-67
2022/03/22 11:27:57;;;;;;;28.95;19.67;;;;;;;;;;5088729;28;20079;-67
2022/03/22 11:30:23;;;;;;;32.83;21.23;;;;;;;;;;5099204;28;20078;-64
2022/03/22 11:35:45;;;;;;;34.60;21.58;;;;;;;;;;5097241;28;20054;-65
2022/03/22 11:38:13;;;;;;;35.80;23.77;;;;;;;;;;5101600;28;20048;-66
2022/03/22 11:43:41;;;;;;;37.70;21.67;;;;;;;;;;5098746;28;20062;-71
2022/03/22 11:46:07;;;;;;;32.63;22.80;;;;;;;;;;5086215;28;20245;-66
2022/03/22 11:48:34;;;;;;;39.47;21.92;;;;;;;;;;5098498;28;20094;-70
2022/03/22 11:51:07;;;;;;;31.88;22.95;;;;;;;;;;5092479;28;20085;-70
2022/03/22 11:53:46;;;;;;;26.45;20.25;;;;;;;;;;5079333;28;20056;-68
2022/03/22 11:56:12;;;;;;;35.83;21.75;;;;;;;;;;5091506;28;20086;-68
2022/03/22 11:58:48;;;;;;;30.08;20.80;;;;;;;;;;5093865;28;20064;-71
2022/03/22 12:01:18;;;;;;;32.55;21.95;;;;;;;;;;5092836;28;20397;-64
2022/03/22 12:03:51;;;;;;;27.58;20.45;;;;;;;;;;5086069;28;20062;-65
2022/03/22 12:06:17;;;;;;;29.25;21.23;;;;;;;;;;5098514;28;20058;-65
2022/03/22 12:08:43;;;;;;;27.67;20.57;;;;;;;;;;5099924;28;20585;-65
2022/03/22 12:11:16;;;;;;;30.70;21.07;;;;;;;;;;5092210;28;20328;-67
2022/03/22 12:13:46;;;;;;;27.42;21.88;;;;;;;;;;5098862;28;20063;-70
2022/03/22 12:16:12;;;;;;;31.40;21.88;;;;;;;;;;5092000;28;20110;-68
2022/03/22 12:18:41;;;;;;;27.65;20.77;;;;;;;;;;5105230;28;20046;-68
2022/03/22 12:21:16;;;;;;;26.80;20.88;;;;;;;;;;5087288;28;20074;-74
2022/03/22 12:23:42;;;;;;;29.75;20.60;;;;;;;;;;5084525;28;20153;-63
2022/03/22 12:26:10;;;;;;;24.50;20.10;;;;;;;;;;5084458;28;20044;-64
2022/03/22 12:28:45;;;;;;;32.13;21.48;;;;;;;;;;5084425;28;20063;-73
2022/03/22 12:31:11;;;;;;;28.48;20.20;;;;;;;;;;5087853;28;20046;-74
2022/03/22 12:33:38;;;;;;;32.63;20.70;;;;;;;;;;5085228;28;20043;-74
2022/03/22 12:36:04;;;;;;;30.65;21.25;;;;;;;;;;5098693;28;20138;-66
2022/03/22 12:38:30;;;;;;;26.25;20.52;;;;;;;;;;5085492;28;20051;-67
2022/03/22 12:40:56;;;;;;;29.70;20.30;;;;;;;;;;5093427;28;20408;-65
2022/03/22 12:43:22;;;;;;;31.30;20.97;;;;;;;;;;5117783;28;20289;-66
2022/03/22 12:45:49;;;;;;;31.63;21.17;;;;;;;;;;5098206;28;20134;-66
2022/03/22 12:48:15;;;;;;;;;;;;;;;;;;5107796;28;20289;-66
2022/03/22 12:50:41;;;;;;;31.85;20.92;;;;;;;;;;5117968;28;19945;-67
2022/03/22 12:53:07;;;;;;;30.33;19.27;;;;;;;;;;5124629;28;20052;-67
2022/03/22 12:55:33;;;;;;;29.17;19.65;;;;;;;;;;5124975;28;20281;-68
2022/03/22 12:58:01;;;;;;;35.20;18.70;;;;;;;;;;5124888;28;20052;-67
2022/03/22 13:00:29;;;;;;;27.92;20.10;;;;;;;;;;5124853;28;20096;-66
2022/03/22 13:02:55;;;;;;;29.63;20.42;;;;;;;;;;5122011;28;20073;-66
2022/03/22 13:05:28;;;;;;;27.85;20.30;;;;;;;;;;5104518;28;20084;-66
2022/03/22 13:07:54;;;;;;;30.88;20.67;;;;;;;;;;5103883;28;20036;-66
2022/03/22 13:13:16;;;;;;;24.75;18.35;;;;;;;;;;5104464;28;20056;-66
2022/03/22 13:15:47;;;;;;;24.33;18.95;;;;;;;;;;5104304;28;20047;-66
2022/03/22 13:18:13;;;;;;;27.42;19.27;;;;;;;;;;5104666;28;20044;-67
2022/03/22 13:20:40;;;;;;;27.42;19.38;;;;;;;;;;5104067;28;20067;-66
2022/03/22 13:23:09;;;;;;;28.10;19.73;;;;;;;;;;5103316;28;20094;-66
2022/03/22 13:25:36;;;;;;;26.52;19.23;;;;;;;;;;5098098;28;20554;-66
2022/03/22 13:28:16;;;;;;;27.60;18.85;;;;;;;;;;5083767;28;20044;-66
2022/03/22 13:30:44;;;;;;;28.95;20.02;;;;;;;;;;5083884;28;20052;-66
2022/03/22 13:33:18;;;;;;;26.58;18.65;;;;;;;;;;5084208;28;20036;-66
2022/03/22 13:35:56;;;;;;;26.40;19.30;;;;;;;;;;5084088;28;20064;-66
2022/03/22 13:38:23;;;;;;;26.98;19.30;;;;;;;;;;5083447;28;20055;-66
2022/03/22 13:40:53;;;;;;;26.88;19.50;;;;;;;;;;5083838;28;20044;-66
2022/03/22 13:43:19;;;;;;;27.55;19.75;;;;;;;;;;5083845;28;20051;-66
2022/03/22 13:45:51;;;;;;;31.00;20.67;;;;;;;;;;5083912;28;20063;-66
2022/03/22 13:48:17;;;;;;;24.88;19.88;;;;;;;;;;5066764;28;20044;-66
2022/03/22 13:50:45;;;;;;;28.23;20.15;;;;;;;;;;5084006;28;20067;-66
2022/03/22 13:53:15;;;;;;;27.85;18.77;;;;;;;;;;5083169;28;20040;-66
2022/03/22 13:55:42;;;;;;;25.27;18.30;;;;;;;;;;5083589;28;20052;-66
2022/03/22 13:58:19;;;;;;;26.13;17.40;;;;;;;;;;5083530;28;20136;-66
2022/03/22 14:00:46;;;;;;;26.33;16.90;;;;;;;;;;5098155;28;20044;-66
2022/03/22 14:03:13;;;;;;;21.02;16.65;;;;;;;;;;5103868;28;20036;-66
2022/03/22 14:05:40;;;;;;;22.45;16.58;;;;;;;;;;5104213;28;20051;-66
2022/03/22 14:08:06;;;;;;;;;;;;;;;;;;5103995;28;20051;-66
2022/03/22 14:10:33;;;;;;;24.35;16.85;;;;;;;;;;5084350;28;19920;-67
2022/03/22 14:13:00;;;;;;;25.83;14.88;;;;;;;;;;5084741;28;20048;-67
2022/03/22 14:15:26;;;;;;;25.13;15.77;;;;;;;;;;5087798;28;20063;-67
2022/03/22 14:17:53;;;;;;;21.17;14.55;;;;;;;;;;5087524;28;20048;-67
2022/03/22 14:20:20;;;;;;;19.50;15.65;;;;;;;;;;5087779;28;20044;-67
2022/03/22 14:22:47;;;;;;;20.23;15.65;;;;;;;;;;5086620;28;20103;-67
2022/03/22 14:25:14;;;;;;;23.13;14.93;;;;;;;;;;5086963;28;20044;-67
2022/03/22 14:27:40;;;;;;;24.85;14.65;;;;;;;;;;5099256;28;20048;-67
2022/03/22 14:30:14;;;;;;;18.10;13.98;;;;;;;;;;5107439;28;20100;-68
2022/03/22 14:32:40;;;;;;;19.52;14.65;;;;;;;;;;5107393;28;20048;-67
2022/03/22 14:37:51;;;;;;;17.85;13.55;;;;;;;;;;5106921;28;20056;-67
2022/03/22 14:40:17;;;;;;;15.77;12.32;;;;;;;;;;5106942;28;20036;-67
2022/03/22 14:42:44;;;;;;;21.88;14.38;;;;;;;;;;5107158;28;20043;-67
2022/03/22 14:45:11;;;;;;;18.63;13.80;;;;;;;;;;5107393;28;20048;-67
2022/03/22 14:47:38;;;;;;;20.50;13.52;;;;;;;;;;5104821;28;20508;-67
2022/03/22 14:50:05;;;;;;;16.48;12.38;;;;;;;;;;5107051;28;20078;-67
2022/03/22 14:55:18;;;;;;;15.15;11.07;;;;;;;;;;5106731;28;20054;-67
2022/03/22 15:00:30;;;;;;;19.20;12.05;;;;;;;;;;5108095;28;20040;-66
2022/03/22 15:02:56;;;;;;;22.52;13.35;;;;;;;;;;5117993;28;20086;-66